sensor_id;sensor_type;location;lat;lon;timestamp;pressure;altitude;pressure_sealevel;temperature;humidity
250;BME280;109;19.806;-70.704;2023-02-11T00:00:19;101808.97;;;22.77;64.92
250;BME280;109;19.806;-70.704;2023-02-11T00:02:45;101815.97;;;22.81;64.75
250;BME280;109;19.806;-70.704;2023-02-11T00:05:12;101818.53;;;22.86;64.66
250;BME280;109;19.806;-70.704;2023-02-11T00:07:38;101816.56;;;22.91;64.77
250;BME280;109;19.806;-70.704;2023-02-11T00:10:05;101824.63;;;22.89;64.44
250;BME280;109;19.806;-70.704;2023-02-11T00:12:34;101829.16;;;22.87;64.24
250;BME280;109;19.806;-70.704;2023-02-11T00:15:01;101831.78;;;22.89;64.28
250;BME280;109;19.806;-70.704;2023-02-11T00:17:27;101830.84;;;22.90;64.41
250;BME280;109;19.806;-70.704;2023-02-11T00:19:54;101833.38;;;22.94;64.38
250;BME280;109;19.806;-70.704;2023-02-11T00:22:20;101837.75;;;22.98;64.20
250;BME280;109;19.806;-70.704;2023-02-11T00:24:47;101835.97;;;22.99;64.82
250;BME280;109;19.806;-70.704;2023-02-11T00:27:13;101836.72;;;23.03;64.19
250;BME280;109;19.806;-70.704;2023-02-11T00:29:40;101838.69;;;22.96;64.57
250;BME280;109;19.806;-70.704;2023-02-11T00:32:20;101839.47;;;23.01;65.13
250;BME280;109;19.806;-70.704;2023-02-11T00:34:59;101838.78;;;22.93;64.61
250;BME280;109;19.806;-70.704;2023-02-11T00:37:39;101852.00;;;22.97;64.77
250;BME280;109;19.806;-70.704;2023-02-11T00:40:06;101858.25;;;22.96;64.76
250;BME280;109;19.806;-70.704;2023-02-11T00:42:47;101842.75;;;22.78;64.57
250;BME280;109;19.806;-70.704;2023-02-11T00:45:14;101852.50;;;22.79;64.79
250;BME280;109;19.806;-70.704;2023-02-11T00:47:54;101860.63;;;22.76;64.90
250;BME280;109;19.806;-70.704;2023-02-11T00:50:28;101869.44;;;22.78;64.93
250;BME280;109;19.806;-70.704;2023-02-11T00:53:10;101864.03;;;22.81;65.24
250;BME280;109;19.806;-70.704;2023-02-11T00:55:37;101872.16;;;22.77;65.07
250;BME280;109;19.806;-70.704;2023-02-11T00:58:17;101869.66;;;22.71;65.19
250;BME280;109;19.806;-70.704;2023-02-11T01:00:44;101872.22;;;22.75;64.79
250;BME280;109;19.806;-70.704;2023-02-11T01:03:24;101872.00;;;22.83;64.96
250;BME280;109;19.806;-70.704;2023-02-11T01:05:50;101871.19;;;22.79;64.97
250;BME280;109;19.806;-70.704;2023-02-11T01:08:31;101868.56;;;22.78;65.02
250;BME280;109;19.806;-70.704;2023-02-11T01:11:00;101870.34;;;22.77;65.24
250;BME280;109;19.806;-70.704;2023-02-11T01:13:43;101871.13;;;22.82;65.27
250;BME280;109;19.806;-70.704;2023-02-11T01:16:10;101868.75;;;22.72;65.25
250;BME280;109;19.806;-70.704;2023-02-11T01:18:51;101881.25;;;22.70;66.27
250;BME280;109;19.806;-70.704;2023-02-11T01:21:18;101883.00;;;22.71;66.42
250;BME280;109;19.806;-70.704;2023-02-11T01:23:59;101877.94;;;22.61;66.53
250;BME280;109;19.806;-70.704;2023-02-11T01:26:26;101882.41;;;22.61;66.80
250;BME280;109;19.806;-70.704;2023-02-11T01:29:05;101897.66;;;22.54;66.76
250;BME280;109;19.806;-70.704;2023-02-11T01:31:32;101886.31;;;22.48;67.54
250;BME280;109;19.806;-70.704;2023-02-11T01:34:12;101895.34;;;22.42;68.13
250;BME280;109;19.806;-70.704;2023-02-11T01:36:39;101898.28;;;22.30;68.37
250;BME280;109;19.806;-70.704;2023-02-11T01:39:20;101895.88;;;22.19;68.46
250;BME280;109;19.806;-70.704;2023-02-11T01:41:46;101908.47;;;22.13;68.73
250;BME280;109;19.806;-70.704;2023-02-11T01:44:37;101899.94;;;21.99;69.01
250;BME280;109;19.806;-70.704;2023-02-11T01:47:18;101898.31;;;21.93;68.97
250;BME280;109;19.806;-70.704;2023-02-11T01:49:58;101895.69;;;21.91;69.43
250;BME280;109;19.806;-70.704;2023-02-11T01:52:39;101891.16;;;21.95;69.47
250;BME280;109;19.806;-70.704;2023-02-11T01:55:10;101899.16;;;21.95;69.53
250;BME280;109;19.806;-70.704;2023-02-11T01:58:10;101883.00;;;22.01;69.42
250;BME280;109;19.806;-70.704;2023-02-11T02:00:38;101896.47;;;21.97;68.75
250;BME280;109;19.806;-70.704;2023-02-11T02:03:19;101897.44;;;21.92;68.96
250;BME280;109;19.806;-70.704;2023-02-11T02:05:52;101900.72;;;22.04;68.98
250;BME280;109;19.806;-70.704;2023-02-11T02:08:44;101907.13;;;21.97;69.44
250;BME280;109;19.806;-70.704;2023-02-11T02:11:18;101915.34;;;21.86;69.96
250;BME280;109;19.806;-70.704;2023-02-11T02:13:59;101922.56;;;21.82;70.30
250;BME280;109;19.806;-70.704;2023-02-11T02:16:35;101913.13;;;21.66;70.07
250;BME280;109;19.806;-70.704;2023-02-11T02:20:10;101913.91;;;21.71;70.72
250;BME280;109;19.806;-70.704;2023-02-11T02:41:02;101914.72;;;21.73;70.63
250;BME280;109;19.806;-70.704;2023-02-11T02:43:48;101914.03;;;21.65;70.38
250;BME280;109;19.806;-70.704;2023-02-11T02:46:24;101910.25;;;21.75;70.41
250;BME280;109;19.806;-70.704;2023-02-11T02:49:09;101912.91;;;21.77;70.43
250;BME280;109;19.806;-70.704;2023-02-11T03:00:43;101906.69;;;21.76;70.17
250;BME280;109;19.806;-70.704;2023-02-11T03:06:33;101899.59;;;21.75;70.27
250;BME280;109;19.806;-70.704;2023-02-11T03:09:20;101908.47;;;21.74;70.33
250;BME280;109;19.806;-70.704;2023-02-11T03:12:03;101901.41;;;21.73;70.95
250;BME280;109;19.806;-70.704;2023-02-11T03:14:31;101893.34;;;21.78;70.28
250;BME280;109;19.806;-70.704;2023-02-11T03:17:13;101892.59;;;21.71;70.21
250;BME280;109;19.806;-70.704;2023-02-11T03:19:43;101897.81;;;21.76;70.61
250;BME280;109;19.806;-70.704;2023-02-11T03:22:29;101894.41;;;21.69;70.02
250;BME280;109;19.806;-70.704;2023-02-11T03:25:12;101882.13;;;21.62;69.70
250;BME280;109;19.806;-70.704;2023-02-11T03:28:12;101879.19;;;21.73;70.25
250;BME280;109;19.806;-70.704;2023-02-11T03:34:18;101869.38;;;21.76;70.17
250;BME280;109;19.806;-70.704;2023-02-11T03:37:06;101863.16;;;21.77;69.91
250;BME280;109;19.806;-70.704;2023-02-11T03:39:46;101874.75;;;21.73;70.50
250;BME280;109;19.806;-70.704;2023-02-11T03:42:36;101874.97;;;21.64;70.46
250;BME280;109;19.806;-70.704;2023-02-11T03:45:14;101871.72;;;21.51;70.84
250;BME280;109;19.806;-70.704;2023-02-11T03:48:00;101864.78;;;21.44;71.19
250;BME280;109;19.806;-70.704;2023-02-11T03:50:36;101886.31;;;21.34;72.09
250;BME280;109;19.806;-70.704;2023-02-11T03:53:18;101889.19;;;21.23;72.17
250;BME280;109;19.806;-70.704;2023-02-11T03:55:46;101861.91;;;21.10;72.20
250;BME280;109;19.806;-70.704;2023-02-11T03:58:27;101861.03;;;21.10;72.18
250;BME280;109;19.806;-70.704;2023-02-11T04:00:54;101866.31;;;21.14;71.63
250;BME280;109;19.806;-70.704;2023-02-11T04:03:35;101857.59;;;21.06;72.13
250;BME280;109;19.806;-70.704;2023-02-11T04:06:02;101856.56;;;21.13;72.09
250;BME280;109;19.806;-70.704;2023-02-11T04:08:41;101853.88;;;21.15;72.03
250;BME280;109;19.806;-70.704;2023-02-11T04:11:08;101858.34;;;21.14;72.45
250;BME280;109;19.806;-70.704;2023-02-11T04:13:47;101841.44;;;21.15;72.06
250;BME280;109;19.806;-70.704;2023-02-11T04:16:14;101842.59;;;21.02;71.96
250;BME280;109;19.806;-70.704;2023-02-11T04:19:02;101835.31;;;21.10;72.29
250;BME280;109;19.806;-70.704;2023-02-11T04:21:35;101830.16;;;21.03;71.79
250;BME280;109;19.806;-70.704;2023-02-11T04:24:14;101829.09;;;21.10;72.32
250;BME280;109;19.806;-70.704;2023-02-11T04:26:54;101838.19;;;21.00;72.61
250;BME280;109;19.806;-70.704;2023-02-11T04:29:21;101819.47;;;21.04;72.72
250;BME280;109;19.806;-70.704;2023-02-11T04:32:00;101832.25;;;20.87;72.97
250;BME280;109;19.806;-70.704;2023-02-11T04:34:27;101827.88;;;20.83;73.17
250;BME280;109;19.806;-70.704;2023-02-11T04:37:14;101826.84;;;20.92;73.03
250;BME280;109;19.806;-70.704;2023-02-11T04:39:47;101824.44;;;20.79;72.74
250;BME280;109;19.806;-70.704;2023-02-11T04:42:27;101815.66;;;20.74;72.59
250;BME280;109;19.806;-70.704;2023-02-11T04:44:54;101810.91;;;20.90;73.22
250;BME280;109;19.806;-70.704;2023-02-11T04:47:33;101809.94;;;20.94;72.48
250;BME280;109;19.806;-70.704;2023-02-11T04:50:01;101812.72;;;20.88;72.52
250;BME280;109;19.806;-70.704;2023-02-11T04:52:49;101817.06;;;20.92;73.04
250;BME280;109;19.806;-70.704;2023-02-11T04:55:22;101816.16;;;20.93;73.31
250;BME280;109;19.806;-70.704;2023-02-11T04:58:02;101796.56;;;20.96;72.96
250;BME280;109;19.806;-70.704;2023-02-11T05:00:29;101817.34;;;20.78;73.13
250;BME280;109;19.806;-70.704;2023-02-11T05:03:08;101799.53;;;20.82;73.73
250;BME280;109;19.806;-70.704;2023-02-11T05:05:38;101797.25;;;20.64;73.43
250;BME280;109;19.806;-70.704;2023-02-11T05:08:18;101803.19;;;20.76;73.41
250;BME280;109;19.806;-70.704;2023-02-11T05:10:45;101799.53;;;20.82;73.05
250;BME280;109;19.806;-70.704;2023-02-11T05:13:25;101803.19;;;20.76;73.49
250;BME280;109;19.806;-70.704;2023-02-11T05:15:52;101791.13;;;20.59;73.61
250;BME280;109;19.806;-70.704;2023-02-11T05:18:31;101781.06;;;20.74;73.63
250;BME280;109;19.806;-70.704;2023-02-11T05:21:10;101774.91;;;20.72;73.61
250;BME280;109;19.806;-70.704;2023-02-11T05:23:50;101779.13;;;20.82;73.64
250;BME280;109;19.806;-70.704;2023-02-11T05:26:17;101790.56;;;20.86;73.41
250;BME280;109;19.806;-70.704;2023-02-11T05:28:57;101773.50;;;20.96;73.34
250;BME280;109;19.806;-70.704;2023-02-11T05:31:37;101768.19;;;20.95;72.82
250;BME280;109;19.806;-70.704;2023-02-11T05:34:04;101769.34;;;20.83;72.76
250;BME280;109;19.806;-70.704;2023-02-11T05:36:50;101766.81;;;20.78;73.05
250;BME280;109;19.806;-70.704;2023-02-11T05:39:23;101766.84;;;20.77;73.06
250;BME280;109;19.806;-70.704;2023-02-11T05:42:04;101761.38;;;20.83;73.21
250;BME280;109;19.806;-70.704;2023-02-11T05:44:31;101755.03;;;20.90;72.96
250;BME280;109;19.806;-70.704;2023-02-11T05:47:10;101752.47;;;20.84;72.60
250;BME280;109;19.806;-70.704;2023-02-11T05:49:37;101753.38;;;20.83;72.68
250;BME280;109;19.806;-70.704;2023-02-11T05:52:16;101753.19;;;20.92;72.84
250;BME280;109;19.806;-70.704;2023-02-11T05:54:50;101756.81;;;20.89;72.97
250;BME280;109;19.806;-70.704;2023-02-11T05:57:31;101763.84;;;20.92;72.51
250;BME280;109;19.806;-70.704;2023-02-11T05:59:58;101760.84;;;21.07;72.29
250;BME280;109;19.806;-70.704;2023-02-11T06:02:40;101757.47;;;20.99;72.27
250;BME280;109;19.806;-70.704;2023-02-11T06:05:07;101760.84;;;21.07;72.22
250;BME280;109;19.806;-70.704;2023-02-11T06:07:46;101756.38;;;21.08;72.27
250;BME280;109;19.806;-70.704;2023-02-11T06:10:13;101759.22;;;21.00;72.56
250;BME280;109;19.806;-70.704;2023-02-11T06:12:53;101754.53;;;21.11;72.25
250;BME280;109;19.806;-70.704;2023-02-11T06:15:20;101752.16;;;20.99;72.62
250;BME280;109;19.806;-70.704;2023-02-11T06:17:59;101749.53;;;20.96;72.78
250;BME280;109;19.806;-70.704;2023-02-11T06:20:26;101750.28;;;21.04;72.64
250;BME280;109;19.806;-70.704;2023-02-11T06:23:14;101748.91;;;20.85;72.15
250;BME280;109;19.806;-70.704;2023-02-11T06:25:47;101746.09;;;20.93;72.08
250;BME280;109;19.806;-70.704;2023-02-11T06:28:28;101749.03;;;20.80;71.79
250;BME280;109;19.806;-70.704;2023-02-11T06:31:03;101746.19;;;20.88;71.77
250;BME280;109;19.806;-70.704;2023-02-11T06:33:50;101737.47;;;20.81;71.70
250;BME280;109;19.806;-70.704;2023-02-11T06:36:30;101739.25;;;20.81;71.38
250;BME280;109;19.806;-70.704;2023-02-11T06:38:57;101747.28;;;20.79;71.61
250;BME280;109;19.806;-70.704;2023-02-11T06:41:37;101750.28;;;20.63;71.40
250;BME280;109;19.806;-70.704;2023-02-11T06:44:04;101745.41;;;20.83;71.38
250;BME280;109;19.806;-70.704;2023-02-11T06:46:46;101754.16;;;20.88;71.13
250;BME280;109;19.806;-70.704;2023-02-11T06:49:13;101756.88;;;20.85;71.23
250;BME280;109;19.806;-70.704;2023-02-11T06:51:53;101751.06;;;20.68;70.83
250;BME280;109;19.806;-70.704;2023-02-11T06:54:27;101759.69;;;20.79;71.38
250;BME280;109;19.806;-70.704;2023-02-11T06:57:06;101727.84;;;20.76;71.07
250;BME280;109;19.806;-70.704;2023-02-11T06:59:33;101728.69;;;20.78;71.61
250;BME280;109;19.806;-70.704;2023-02-11T07:02:13;101731.28;;;20.81;71.29
250;BME280;109;19.806;-70.704;2023-02-11T07:04:40;101733.09;;;20.79;71.48
250;BME280;109;19.806;-70.704;2023-02-11T07:07:19;101718.06;;;20.76;71.33
250;BME280;109;19.806;-70.704;2023-02-11T07:09:46;101717.03;;;20.82;71.47
250;BME280;109;19.806;-70.704;2023-02-11T07:12:25;101725.97;;;20.81;71.30
250;BME280;109;19.806;-70.704;2023-02-11T07:14:52;101721.63;;;20.75;71.51
250;BME280;109;19.806;-70.704;2023-02-11T07:17:34;101721.75;;;20.69;71.71
250;BME280;109;19.806;-70.704;2023-02-11T07:20:00;101725.53;;;20.58;72.07
250;BME280;109;19.806;-70.704;2023-02-11T07:22:43;101724.78;;;20.52;71.94
250;BME280;109;19.806;-70.704;2023-02-11T07:25:18;101727.44;;;20.52;72.48
250;BME280;109;19.806;-70.704;2023-02-11T07:27:57;101724.22;;;20.35;72.58
250;BME280;109;19.806;-70.704;2023-02-11T07:30:24;101717.78;;;20.45;72.75
250;BME280;109;19.806;-70.704;2023-02-11T07:33:11;101705.34;;;20.47;72.76
250;BME280;109;19.806;-70.704;2023-02-11T07:35:50;101709.06;;;20.40;72.62
250;BME280;109;19.806;-70.704;2023-02-11T07:38:31;101701.84;;;20.45;72.00
250;BME280;109;19.806;-70.704;2023-02-11T07:41:17;101701.81;;;20.48;72.39
250;BME280;109;19.806;-70.704;2023-02-11T07:43:50;101706.38;;;20.40;72.34
250;BME280;109;19.806;-70.704;2023-02-11T07:46:30;101697.38;;;20.49;72.17
250;BME280;109;19.806;-70.704;2023-02-11T07:48:57;101689.41;;;20.46;72.09
250;BME280;109;19.806;-70.704;2023-02-11T07:51:37;101685.97;;;20.42;71.82
250;BME280;109;19.806;-70.704;2023-02-11T07:54:04;101686.03;;;20.39;72.15
250;BME280;109;19.806;-70.704;2023-02-11T07:56:51;101685.84;;;20.48;71.97
250;BME280;109;19.806;-70.704;2023-02-11T07:59:23;101683.34;;;20.41;72.39
250;BME280;109;19.806;-70.704;2023-02-11T08:02:03;101693.19;;;20.34;72.16
250;BME280;109;19.806;-70.704;2023-02-11T08:04:30;101689.44;;;20.44;71.97
250;BME280;109;19.806;-70.704;2023-02-11T08:07:14;101687.66;;;20.45;72.27
250;BME280;109;19.806;-70.704;2023-02-11T08:09:47;101696.38;;;20.55;72.30
250;BME280;109;19.806;-70.704;2023-02-11T08:12:27;101693.84;;;20.45;72.14
250;BME280;109;19.806;-70.704;2023-02-11T08:14:54;101683.84;;;20.60;71.99
250;BME280;109;19.806;-70.704;2023-02-11T08:17:36;101684.88;;;20.52;71.84
250;BME280;109;19.806;-70.704;2023-02-11T08:20:10;101676.75;;;20.59;72.07
250;BME280;109;19.806;-70.704;2023-02-11T08:22:50;101685.75;;;20.55;71.93
250;BME280;109;19.806;-70.704;2023-02-11T08:25:17;101681.16;;;20.61;71.43
250;BME280;109;19.806;-70.704;2023-02-11T08:27:57;101673.94;;;20.68;71.83
250;BME280;109;19.806;-70.704;2023-02-11T08:30:23;101672.06;;;20.71;71.50
250;BME280;109;19.806;-70.704;2023-02-11T08:33:10;101683.00;;;20.58;71.94
250;BME280;109;19.806;-70.704;2023-02-11T08:35:49;101675.84;;;20.60;71.47
250;BME280;109;19.806;-70.704;2023-02-11T08:38:16;101679.44;;;20.59;71.55
250;BME280;109;19.806;-70.704;2023-02-11T08:40:58;101672.38;;;20.56;71.22
250;BME280;109;19.806;-70.704;2023-02-11T08:43:25;101670.81;;;20.44;71.50
250;BME280;109;19.806;-70.704;2023-02-11T08:46:04;101668.75;;;20.60;71.18
250;BME280;109;19.806;-70.704;2023-02-11T08:48:31;101666.13;;;20.59;71.53
250;BME280;109;19.806;-70.704;2023-02-11T08:51:14;101665.16;;;20.63;71.04
250;BME280;109;19.806;-70.704;2023-02-11T08:53:48;101661.66;;;20.61;71.21
250;BME280;109;19.806;-70.704;2023-02-11T08:56:28;101654.69;;;20.55;71.50
250;BME280;109;19.806;-70.704;2023-02-11T08:58:57;101661.72;;;20.58;71.12
250;BME280;109;19.806;-70.704;2023-02-11T09:01:36;101654.50;;;20.64;71.04
250;BME280;109;19.806;-70.704;2023-02-11T09:04:03;101664.19;;;20.67;71.01
250;BME280;109;19.806;-70.704;2023-02-11T09:06:43;101657.25;;;20.58;70.97
250;BME280;109;19.806;-70.704;2023-02-11T09:09:12;101664.47;;;20.55;70.77
250;BME280;109;19.806;-70.704;2023-02-11T09:11:53;101669.34;;;20.73;70.54
250;BME280;109;19.806;-70.704;2023-02-11T09:14:28;101667.59;;;20.72;70.75
250;BME280;109;19.806;-70.704;2023-02-11T09:17:09;101665.84;;;20.71;70.72
250;BME280;109;19.806;-70.704;2023-02-11T09:19:36;101670.41;;;20.66;70.45
250;BME280;109;19.806;-70.704;2023-02-11T09:22:16;101666.63;;;20.76;70.18
250;BME280;109;19.806;-70.704;2023-02-11T09:24:42;101660.34;;;20.80;70.07
250;BME280;109;19.806;-70.704;2023-02-11T09:27:24;101664.06;;;20.71;70.15
250;BME280;109;19.806;-70.704;2023-02-11T09:29:58;101658.66;;;20.76;70.35
250;BME280;109;19.806;-70.704;2023-02-11T09:32:37;101668.31;;;20.80;70.21
250;BME280;109;19.806;-70.704;2023-02-11T09:35:04;101663.97;;;20.76;70.17
250;BME280;109;19.806;-70.704;2023-02-11T09:37:51;101664.94;;;20.72;69.61
250;BME280;109;19.806;-70.704;2023-02-11T09:40:24;101667.59;;;20.72;70.32
250;BME280;109;19.806;-70.704;2023-02-11T09:45:52;101673.81;;;20.72;70.07
250;BME280;109;19.806;-70.704;2023-02-11T09:48:29;101672.00;;;20.74;69.96
250;BME280;109;19.806;-70.704;2023-02-11T09:57:08;101682.53;;;20.79;69.67
250;BME280;109;19.806;-70.704;2023-02-11T09:59:35;101682.44;;;20.82;69.33
250;BME280;109;19.806;-70.704;2023-02-11T10:02:26;101687.91;;;20.76;69.51
250;BME280;109;19.806;-70.704;2023-02-11T10:11:25;101688.78;;;20.76;69.59
250;BME280;109;19.806;-70.704;2023-02-11T10:17:23;101699.41;;;20.78;69.61
250;BME280;109;19.806;-70.704;2023-02-11T10:23:11;101695.91;;;20.76;69.24
250;BME280;109;19.806;-70.704;2023-02-11T10:25:53;101705.63;;;20.77;69.22
250;BME280;109;19.806;-70.704;2023-02-11T10:28:26;101701.06;;;20.82;69.08
250;BME280;109;19.806;-70.704;2023-02-11T10:31:46;101710.81;;;20.83;69.01
250;BME280;109;19.806;-70.704;2023-02-11T10:34:28;101710.94;;;20.78;69.19
250;BME280;109;19.806;-70.704;2023-02-11T10:37:12;101712.59;;;20.82;69.19
250;BME280;109;19.806;-70.704;2023-02-11T10:39:45;101723.31;;;20.81;68.84
250;BME280;109;19.806;-70.704;2023-02-11T10:42:26;101719.75;;;20.80;68.95
250;BME280;109;19.806;-70.704;2023-02-11T10:44:59;101715.22;;;20.84;68.79
250;BME280;109;19.806;-70.704;2023-02-11T10:47:47;101725.72;;;20.92;68.86
250;BME280;109;19.806;-70.704;2023-02-11T10:50:26;101722.94;;;20.96;68.76
250;BME280;109;19.806;-70.704;2023-02-11T10:53:16;101729.16;;;20.95;69.15
250;BME280;109;19.806;-70.704;2023-02-11T10:56:05;101719.34;;;20.97;68.86
250;BME280;109;19.806;-70.704;2023-02-11T10:58:45;101733.59;;;20.95;69.03
250;BME280;109;19.806;-70.704;2023-02-11T11:01:19;101745.09;;;20.97;68.80
250;BME280;109;19.806;-70.704;2023-02-11T11:03:48;101736.16;;;21.01;68.65
250;BME280;109;19.806;-70.704;2023-02-11T11:06:15;101752.00;;;21.07;68.65
250;BME280;109;19.806;-70.704;2023-02-11T11:08:53;101756.31;;;21.11;69.15
250;BME280;109;19.806;-70.704;2023-02-11T11:11:22;101753.63;;;21.12;69.01
250;BME280;109;19.806;-70.704;2023-02-11T11:16:26;101756.44;;;21.06;68.92
250;BME280;109;19.806;-70.704;2023-02-11T11:19:14;101760.94;;;21.03;69.05
250;BME280;109;19.806;-70.704;2023-02-11T11:21:46;101755.59;;;21.04;68.80
250;BME280;109;19.806;-70.704;2023-02-11T11:24:31;101756.56;;;21.00;69.27
250;BME280;109;19.806;-70.704;2023-02-11T11:27:01;101768.06;;;21.02;69.25
250;BME280;109;19.806;-70.704;2023-02-11T11:29:36;101775.88;;;21.08;68.74
250;BME280;109;19.806;-70.704;2023-02-11T11:32:22;101768.84;;;21.07;69.01
250;BME280;109;19.806;-70.704;2023-02-11T11:34:53;101776.75;;;21.10;68.86
250;BME280;109;19.806;-70.704;2023-02-11T11:37:27;101775.94;;;21.07;68.93
250;BME280;109;19.806;-70.704;2023-02-11T11:40:01;101768.78;;;21.09;68.83
250;BME280;109;19.806;-70.704;2023-02-11T11:42:36;101778.53;;;21.10;68.38
250;BME280;109;19.806;-70.704;2023-02-11T11:47:50;101776.69;;;21.15;68.33
250;BME280;109;19.806;-70.704;2023-02-11T11:50:41;101783.00;;;21.08;68.48
250;BME280;109;19.806;-70.704;2023-02-11T11:53:28;101794.41;;;21.16;68.74
250;BME280;109;19.806;-70.704;2023-02-11T11:56:02;101792.41;;;21.26;68.57
250;BME280;109;19.806;-70.704;2023-02-11T11:58:30;101798.66;;;21.23;68.13
250;BME280;109;19.806;-70.704;2023-02-11T12:01:14;101799.41;;;21.30;67.89
250;BME280;109;19.806;-70.704;2023-02-11T12:09:49;101809.94;;;21.34;67.46
250;BME280;109;19.806;-70.704;2023-02-11T12:13:09;101821.31;;;21.42;67.28
250;BME280;109;19.806;-70.704;2023-02-11T12:15:28;101818.19;;;21.62;67.18
250;BME280;109;19.806;-70.704;2023-02-11T12:18:40;101820.97;;;21.94;66.77
250;BME280;109;19.806;-70.704;2023-02-11T12:26:19;101816.69;;;21.87;66.14
250;BME280;109;19.806;-70.704;2023-02-11T12:29:24;101821.00;;;21.93;65.70
250;BME280;109;19.806;-70.704;2023-02-11T12:37:48;101833.00;;;21.74;65.09
250;BME280;109;19.806;-70.704;2023-02-11T12:43:36;101833.16;;;21.68;64.92
250;BME280;109;19.806;-70.704;2023-02-11T12:46:13;101837.41;;;21.75;65.39
250;BME280;109;19.806;-70.704;2023-02-11T12:59:50;101859.03;;;22.35;65.41
250;BME280;109;19.806;-70.704;2023-02-11T13:08:05;101849.28;;;23.01;64.42
250;BME280;109;19.806;-70.704;2023-02-11T13:10:37;101855.88;;;23.17;64.30
250;BME280;109;19.806;-70.704;2023-02-11T13:13:26;101857.53;;;23.22;63.65
250;BME280;109;19.806;-70.704;2023-02-11T13:16:04;101856.16;;;23.08;63.12
250;BME280;109;19.806;-70.704;2023-02-11T13:21:24;101866.78;;;23.11;62.55
250;BME280;109;19.806;-70.704;2023-02-11T13:24:16;101873.50;;;22.91;63.01
250;BME280;109;19.806;-70.704;2023-02-11T13:26:51;101873.91;;;22.78;63.50
250;BME280;109;19.806;-70.704;2023-02-11T13:32:23;101879.75;;;22.59;63.88
250;BME280;109;19.806;-70.704;2023-02-11T13:37:21;101888.59;;;22.61;64.18
250;BME280;109;19.806;-70.704;2023-02-11T13:42:26;101896.22;;;23.08;64.41
250;BME280;109;19.806;-70.704;2023-02-11T13:44:54;101895.75;;;23.24;63.96
250;BME280;109;19.806;-70.704;2023-02-11T13:47:30;101914.13;;;23.04;64.15
250;BME280;109;19.806;-70.704;2023-02-11T13:49:59;101908.69;;;23.07;63.85
250;BME280;109;19.806;-70.704;2023-02-11T13:52:35;101909.63;;;23.06;63.94
250;BME280;109;19.806;-70.704;2023-02-11T13:55:20;101915.22;;;22.95;63.72
250;BME280;109;19.806;-70.704;2023-02-11T14:11:44;101950.22;;;22.14;68.30
250;BME280;109;19.806;-70.704;2023-02-11T14:14:21;101943.66;;;21.91;69.35
250;BME280;109;19.806;-70.704;2023-02-11T14:19:35;101945.63;;;21.83;69.38
250;BME280;109;19.806;-70.704;2023-02-11T14:22:04;101942.94;;;21.85;69.81
250;BME280;109;19.806;-70.704;2023-02-11T14:27:09;101942.50;;;22.76;69.16
250;BME280;109;19.806;-70.704;2023-02-11T14:32:20;101932.59;;;22.45;69.12
250;BME280;109;19.806;-70.704;2023-02-11T14:35:17;101929.66;;;22.56;69.47
250;BME280;109;19.806;-70.704;2023-02-11T14:43:23;101930.09;;;22.73;68.24
250;BME280;109;19.806;-70.704;2023-02-11T14:45:54;101929.50;;;22.94;68.00
250;BME280;109;19.806;-70.704;2023-02-11T14:48:32;101932.63;;;22.78;67.42
250;BME280;109;19.806;-70.704;2023-02-11T14:51:18;101935.50;;;22.70;67.70
250;BME280;109;19.806;-70.704;2023-02-11T14:53:49;101929.06;;;22.77;68.18
250;BME280;109;19.806;-70.704;2023-02-11T14:56:29;101939.31;;;22.61;67.58
250;BME280;109;19.806;-70.704;2023-02-11T14:58:59;101950.78;;;22.28;68.74
250;BME280;109;19.806;-70.704;2023-02-11T15:01:29;101958.03;;;22.23;68.56
250;BME280;109;19.806;-70.704;2023-02-11T15:04:02;101948.41;;;22.16;68.54
250;BME280;109;19.806;-70.704;2023-02-11T15:06:36;101943.63;;;22.30;69.22
250;BME280;109;19.806;-70.704;2023-02-11T15:09:25;101940.38;;;22.17;68.67
250;BME280;109;19.806;-70.704;2023-02-11T15:11:55;101929.66;;;22.56;69.12
250;BME280;109;19.806;-70.704;2023-02-11T15:14:26;101931.41;;;22.57;68.83
250;BME280;109;19.806;-70.704;2023-02-11T15:16:58;101923.88;;;22.73;68.23
250;BME280;109;19.806;-70.704;2023-02-11T15:19:35;101914.78;;;22.80;67.87
250;BME280;109;19.806;-70.704;2023-02-11T15:22:06;101914.44;;;22.92;68.09
250;BME280;109;19.806;-70.704;2023-02-11T15:24:39;101924.75;;;22.73;67.71
250;BME280;109;19.806;-70.704;2023-02-11T15:27:12;101925.97;;;22.61;67.63
250;BME280;109;19.806;-70.704;2023-02-11T15:29:48;101912.25;;;22.75;67.35
250;BME280;109;19.806;-70.704;2023-02-11T15:32:18;101910.72;;;22.99;67.11
250;BME280;109;19.806;-70.704;2023-02-11T15:34:47;101914.16;;;23.03;67.12
250;BME280;109;19.806;-70.704;2023-02-11T15:39:48;101909.59;;;23.08;67.65
250;BME280;109;19.806;-70.704;2023-02-11T15:42:27;101909.66;;;23.05;65.98
250;BME280;109;19.806;-70.704;2023-02-11T15:45:22;101914.28;;;22.98;65.92
250;BME280;109;19.806;-70.704;2023-02-11T15:50:41;101908.75;;;23.06;66.81
250;BME280;109;19.806;-70.704;2023-02-11T15:56:06;101897.94;;;23.10;66.07
250;BME280;109;19.806;-70.704;2023-02-11T15:58:39;101898.88;;;23.39;65.88
250;BME280;109;19.806;-70.704;2023-02-11T16:01:06;101895.78;;;23.52;66.04
250;BME280;109;19.806;-70.704;2023-02-11T16:03:34;101872.28;;;23.65;65.07
250;BME280;109;19.806;-70.704;2023-02-11T16:06:23;101874.72;;;23.99;64.55
250;BME280;109;19.806;-70.704;2023-02-11T16:19:34;101856.22;;;24.19;64.47
250;BME280;109;19.806;-70.704;2023-02-11T16:22:10;101852.03;;;24.37;64.18
250;BME280;109;19.806;-70.704;2023-02-11T16:24:39;101849.25;;;24.40;63.57
250;BME280;109;19.806;-70.704;2023-02-11T16:27:18;101847.84;;;24.30;64.20
250;BME280;109;19.806;-70.704;2023-02-11T16:29:47;101840.72;;;24.02;64.27
250;BME280;109;19.806;-70.704;2023-02-11T16:32:21;101846.59;;;23.59;64.77